Time;durP1;ratioP1;P1;durP2;ratioP2;P2;SDS_P1;SDS_P2;PMS_P1;PMS_P2;Temp;Humidity;BMP_temperature;BMP_pressure;BME280_temperature;BME280_humidity;BME280_pressure;Samples;Min_cycle;Max_cycle;Signal;HPM_P1;HPM_P2
2022/06/01 00:01:34;;;;;;;10.68;5.03;;;;;;;5.51;100.00;98377.63;4185442;28;20438;-71
2022/06/01 00:03:38;;;;;;;4.82;3.90;;;;;;;5.57;99.94;98379.78;4188028;28;20048;-71
2022/06/01 00:05:38;;;;;;;4.30;3.85;;;;;;;5.54;99.04;98372.22;4188680;28;20143;-71
2022/06/01 00:07:38;;;;;;;5.10;4.10;;;;;;;5.53;100.00;98370.63;4202374;27;20085;-71
2022/06/01 00:09:39;;;;;;;5.00;4.45;;;;;;;5.50;99.50;98367.78;4203297;27;20119;-71
2022/06/01 00:11:39;;;;;;;5.78;3.80;;;;;;;5.43;100.00;98365.63;4203125;28;20066;-71
2022/06/01 00:13:40;;;;;;;4.32;3.88;;;;;;;5.39;100.00;98370.22;4199078;28;20044;-71
2022/06/01 00:15:41;;;;;;;4.95;4.10;;;;;;;5.42;100.00;98361.28;4187857;28;20063;-71
2022/06/01 00:17:42;;;;;;;5.60;3.95;;;;;;;5.51;99.92;98364.69;4190785;28;20514;-71
2022/06/01 00:19:43;;;;;;;4.10;3.60;;;;;;;5.58;99.35;98356.69;4197317;27;20538;-71
2022/06/01 00:24:03;;;;;;;4.95;4.05;;;;;;;5.66;99.87;98370.63;4187482;28;20082;-71
2022/06/01 00:26:03;;;;;;;5.55;4.35;;;;;;;5.62;100.00;98368.53;4189371;28;20548;-71
2022/06/01 00:28:05;;;;;;;5.25;4.75;;;;;;;5.56;100.00;98369.97;4187728;28;20354;-71
2022/06/01 00:30:13;;;;;;;5.25;4.28;;;;;;;5.53;100.00;98372.56;4187657;28;20267;-71
2022/06/01 00:32:14;;;;;;;4.78;4.05;;;;;;;5.49;100.00;98382.66;4188386;28;20127;-71
2022/06/01 00:34:15;;;;;;;6.55;4.88;;;;;;;5.44;100.00;98372.72;4187703;28;20185;-71
2022/06/01 00:36:15;;;;;;;5.28;4.22;;;;;;;5.41;100.00;98372.63;4188283;28;20071;-71
2022/06/01 00:38:16;;;;;;;5.13;4.47;;;;;;;5.38;100.00;98374.13;4202181;27;20054;-71
2022/06/01 00:40:20;;;;;;;5.43;4.25;;;;;;;5.40;100.00;98371.81;4202904;27;20031;-71
2022/06/01 00:42:23;;;;;;;5.35;4.10;;;;;;;5.39;100.00;98374.91;4202140;27;20028;-71
2022/06/01 00:44:23;;;;;;;5.00;4.00;;;;;;;5.35;100.00;98369.31;4201520;28;20048;-71
2022/06/01 00:46:24;;;;;;;5.63;4.40;;;;;;;5.30;100.00;98370.38;4187417;28;20055;-71
2022/06/01 00:48:28;;;;;;;6.13;4.80;;;;;;;5.29;100.00;98371.47;4186741;28;20441;-71
2022/06/01 00:50:36;;;;;;;5.40;4.20;;;;;;;5.25;100.00;98375.28;4198569;27;20445;-71
2022/06/01 00:52:45;;;;;;;5.65;4.90;;;;;;;5.20;100.00;98378.25;4196358;27;20086;-71
2022/06/01 00:54:46;;;;;;;6.15;3.97;;;;;;;5.19;100.00;98377.44;4202563;27;20412;-71
2022/06/01 00:56:50;;;;;;;5.05;4.47;;;;;;;5.21;100.00;98379.84;4203015;27;20125;-71
2022/06/01 00:58:55;;;;;;;4.57;3.92;;;;;;;5.23;100.00;98378.38;4202647;27;20043;-71
2022/06/01 01:00:56;;;;;;;4.85;3.80;;;;;;;5.19;100.00;98374.69;4202757;27;20092;-71
2022/06/01 01:03:00;;;;;;;4.95;4.05;;;;;;;5.12;100.00;98376.44;4202741;27;20044;-71
2022/06/01 01:05:03;;;;;;;4.18;3.78;;;;;;;5.12;100.00;98377.22;4199981;27;20056;-71
2022/06/01 01:07:06;;;;;;;4.57;3.83;;;;;;;5.10;100.00;98381.47;4187125;28;20071;-71
2022/06/01 01:09:08;;;;;;;4.07;3.63;;;;;;;5.17;100.00;98377.00;4186431;27;20419;-71
2022/06/01 01:11:11;;;;;;;4.20;3.80;;;;;;;5.05;100.00;98388.00;4187373;28;20081;-71
2022/06/01 01:13:14;;;;;;;7.10;4.30;;;;;;;4.97;100.00;98391.66;4186703;28;20457;-71
2022/06/01 01:15:14;;;;;;;5.28;4.40;;;;;;;4.90;100.00;98383.19;4194347;28;20040;-71
2022/06/01 01:17:15;;;;;;;5.50;4.13;;;;;;;4.86;100.00;98401.44;4195274;27;20049;-71
2022/06/01 01:19:51;;;;;;;5.80;4.70;;;;;;;4.79;100.00;98422.00;4186542;28;20575;-71
2022/06/01 01:22:03;;;;;;;6.32;4.20;;;;;;;4.85;100.00;98410.81;4198737;28;20080;-71
2022/06/01 01:24:18;;;;;;;4.40;3.97;;;;;;;4.83;100.00;98408.44;4202265;27;20051;-71
2022/06/01 01:26:22;;;;;;;5.70;4.57;;;;;;;4.79;100.00;98419.25;4189761;28;20465;-71
2022/06/01 01:28:23;;;;;;;4.68;4.18;;;;;;;4.79;100.00;98416.53;4186618;28;20048;-71
2022/06/01 01:30:36;;;;;;;7.25;4.80;;;;;;;4.73;100.00;98428.88;4187023;28;20036;-71
2022/06/01 01:32:36;;;;;;;4.93;4.30;;;;;;;4.70;100.00;98423.25;4187233;28;20037;-71
2022/06/01 01:34:38;;;;;;;6.18;5.07;;;;;;;4.65;100.00;98418.00;4187247;28;20152;-71
2022/06/01 01:36:45;;;;;;;4.60;4.10;;;;;;;4.72;100.00;98410.03;4186896;28;20048;-71
2022/06/01 01:38:59;;;;;;;4.78;4.05;;;;;;;4.81;100.00;98409.91;4197620;27;20044;-71
2022/06/01 01:41:31;;;;;;;5.18;4.18;;;;;;;4.90;100.00;98416.88;4186551;28;20052;-71
2022/06/01 01:43:34;;;;;;;4.53;3.90;;;;;;;4.97;100.00;98414.38;4187371;28;20051;-71
2022/06/01 01:45:36;;;;;;;;;;;;;;;5.03;100.00;98404.75;4186915;28;20032;-71
2022/06/01 01:47:37;;;;;;;5.53;3.30;;;;;;;5.07;100.00;98400.22;4189290;28;20288;-71
2022/06/01 01:49:38;;;;;;;4.70;3.63;;;;;;;5.15;100.00;98395.75;4200346;27;20050;-71
2022/06/01 01:51:39;;;;;;;3.53;3.15;;;;;;;5.19;100.00;98388.41;4201956;27;20117;-71
2022/06/01 01:53:39;;;;;;;6.60;3.65;;;;;;;5.26;100.00;98396.06;4201938;28;20036;-71
2022/06/01 01:55:55;;;;;;;4.13;3.42;;;;;;;5.25;100.00;98397.22;4186586;28;20093;-72
2022/06/01 01:58:19;;;;;;;4.38;3.33;;;;;;;5.18;100.00;98389.56;4186576;28;20044;-71
2022/06/01 02:00:24;;;;;;;5.80;3.67;;;;;;;5.26;100.00;98396.88;4186738;28;20166;-71
2022/06/01 02:02:59;;;;;;;5.93;4.43;;;;;;;5.32;100.00;98398.25;4186679;28;20041;-71
2022/06/01 02:08:19;;;;;;;6.70;3.95;;;;;;;5.23;100.00;98385.81;4201381;27;20046;-71
2022/06/01 02:12:42;;;;;;;4.43;3.80;;;;;;;5.27;100.00;98392.97;4185978;28;20434;-71
2022/06/01 02:14:47;;;;;;;4.47;3.80;;;;;;;5.33;100.00;98399.03;4192301;28;20076;-71
2022/06/01 02:16:56;;;;;;;5.07;3.95;;;;;;;5.32;100.00;98392.75;4186311;28;20064;-71
2022/06/01 02:19:00;;;;;;;8.40;5.30;;;;;;;5.29;100.00;98384.41;4184711;28;20033;-71
2022/06/01 02:21:07;;;;;;;5.95;4.43;;;;;;;5.23;100.00;98389.34;4186451;28;20048;-71
2022/06/01 02:23:13;;;;;;;6.13;4.03;;;;;;;5.21;100.00;98388.06;4185104;28;20467;-71
2022/06/01 02:25:14;;;;;;;5.13;4.35;;;;;;;5.16;100.00;98377.34;4185402;28;20102;-71
2022/06/01 02:27:16;;;;;;;5.63;4.20;;;;;;;5.06;100.00;98360.22;4186409;28;20525;-71
2022/06/01 02:29:25;;;;;;;6.93;4.50;;;;;;;5.00;100.00;98369.81;4191627;28;20062;-71
2022/06/01 02:31:28;;;;;;;10.18;5.80;;;;;;;4.96;100.00;98368.88;4201229;27;20268;-71
2022/06/01 02:33:33;;;;;;;5.68;4.10;;;;;;;4.99;100.00;98361.94;4195138;27;20044;-71
2022/06/01 02:35:37;;;;;;;6.35;4.07;;;;;;;4.99;100.00;98361.94;4185912;28;20076;-71
2022/06/01 02:37:39;;;;;;;5.70;4.57;;;;;;;4.90;100.00;98356.56;4186081;28;20051;-71
2022/06/01 02:39:43;;;;;;;5.20;3.95;;;;;;;4.93;100.00;98347.66;4187450;28;20094;-71
2022/06/01 02:44:02;;;;;;;5.63;4.55;;;;;;;4.85;100.00;98345.84;4185532;28;20545;-72
2022/06/01 02:46:02;;;;;;;4.85;4.00;;;;;;;4.89;100.00;98352.25;4185966;28;20028;-72
2022/06/01 02:48:04;;;;;;;4.43;3.67;;;;;;;4.90;100.00;98353.84;4185463;28;20048;-71
2022/06/01 02:50:07;;;;;;;4.30;3.50;;;;;;;4.85;100.00;98353.25;4185080;28;20417;-71
2022/06/01 02:52:07;;;;;;;4.70;4.10;;;;;;;4.78;100.00;98362.03;4185356;28;20449;-72
2022/06/01 02:54:08;;;;;;;7.25;3.97;;;;;;;4.74;100.00;98352.94;4186102;28;20031;-71
2022/06/01 02:56:08;;;;;;;5.07;3.75;;;;;;;4.78;100.00;98368.31;4180453;28;20036;-71
2022/06/01 02:58:09;;;;;;;4.60;3.80;;;;;;;4.71;100.00;98364.56;4195326;28;20028;-71
2022/06/01 03:00:17;;;;;;;5.57;4.30;;;;;;;4.61;100.00;98367.75;4190046;28;20067;-71
2022/06/01 03:02:17;;;;;;;5.55;3.97;;;;;;;4.59;100.00;98364.56;4186835;28;20389;-71
2022/06/01 03:04:17;;;;;;;5.47;4.25;;;;;;;4.53;100.00;98379.63;4189884;28;20351;-71
2022/06/01 03:06:18;;;;;;;6.20;4.88;;;;;;;4.51;100.00;98397.19;4185877;28;20279;-71
2022/06/01 03:08:18;;;;;;;7.32;5.60;;;;;;;4.51;100.00;98415.56;4186658;28;20369;-71
2022/06/01 03:10:19;;;;;;;7.80;5.75;;;;;;;4.51;100.00;98423.78;4184488;28;20024;-71
2022/06/01 03:12:20;;;;;;;7.10;4.90;;;;;;;4.51;100.00;98421.06;4182688;28;20044;-71
2022/06/01 03:14:20;;;;;;;9.43;5.63;;;;;;;4.70;100.00;98420.50;4183965;28;20401;-71
2022/06/01 03:16:20;;;;;;;7.57;5.45;;;;;;;4.83;100.00;98394.72;4180993;28;20055;-71
2022/06/01 03:18:21;;;;;;;5.75;4.93;;;;;;;4.85;100.00;98402.59;4182659;27;20423;-71
2022/06/01 03:20:24;;;;;;;7.68;5.10;;;;;;;4.87;100.00;98427.72;4184851;28;20444;-71
2022/06/01 03:25:23;;;;;;;8.52;5.18;;;;;;;4.98;100.00;98415.19;4187612;28;20071;-71
2022/06/01 03:27:23;;;;;;;6.95;4.93;;;;;;;5.03;100.00;98421.22;4189087;28;20072;-71
2022/06/01 03:29:24;;;;;;;6.53;4.43;;;;;;;5.05;100.00;98415.41;4187984;27;20291;-71
2022/06/01 03:31:25;;;;;;;5.68;4.32;;;;;;;5.04;100.00;98405.56;4186901;28;20040;-71
2022/06/01 03:33:25;;;;;;;6.13;4.70;;;;;;;5.07;100.00;98400.22;4182598;28;20132;-71
2022/06/01 03:35:29;;;;;;;6.05;4.20;;;;;;;5.06;100.00;98387.66;4185662;28;20041;-71
2022/06/01 03:37:31;;;;;;;10.48;4.88;;;;;;;5.13;100.00;98399.97;4190739;28;20039;-71
2022/06/01 03:39:31;;;;;;;4.90;3.70;;;;;;;5.12;100.00;98393.69;4188145;28;20079;-71
2022/06/01 03:41:31;;;;;;;4.47;3.80;;;;;;;5.14;100.00;98402.38;4188480;28;20507;-71
2022/06/01 03:45:55;;;;;;;6.05;4.28;;;;;;;5.14;100.00;98405.13;4183779;28;20328;-71
2022/06/01 03:45:59;;;;;;;6.57;4.10;;;;;;;5.17;100.00;98401.69;4187722;28;20033;-71
2022/06/01 03:47:59;;;;;;;4.40;3.92;;;;;;;5.21;100.00;98397.13;4187614;28;20078;-71
2022/06/01 03:50:00;;;;;;;4.10;3.42;;;;;;;5.25;100.00;98397.22;4187973;28;20044;-71
2022/06/01 03:52:01;;;;;;;5.00;3.83;;;;;;;5.25;100.00;98397.22;4190884;27;20054;-71
2022/06/01 03:54:02;;;;;;;4.05;3.28;;;;;;;5.27;100.00;98395.72;4202276;28;20028;-71
2022/06/01 03:56:02;;;;;;;4.80;4.07;;;;;;;5.38;100.00;98398.81;4204157;27;20028;-71
2022/06/01 03:58:04;;;;;;;5.55;4.07;;;;;;;5.46;100.00;98395.16;4202667;27;20097;-71
2022/06/01 04:00:05;;;;;;;4.57;4.17;;;;;;;5.55;100.00;98397.75;4188317;28;20092;-72
2022/06/01 04:02:06;;;;;;;6.10;4.10;;;;;;;5.64;100.00;98388.22;4187533;28;20278;-71
2022/06/01 04:04:06;;;;;;;6.13;3.80;;;;;;;5.74;100.00;98389.69;4189921;28;20219;-71
2022/06/01 04:06:07;;;;;;;11.20;7.35;;;;;;;5.87;100.00;98393.16;4188357;28;20029;-71
2022/06/01 04:08:08;;;;;;;7.03;5.70;;;;;;;5.94;100.00;98396.16;4188108;28;20712;-71
2022/06/01 04:10:08;;;;;;;6.72;5.22;;;;;;;5.96;100.00;98390.31;4203729;27;20508;-71
2022/06/01 04:12:09;;;;;;;8.18;4.80;;;;;;;5.87;100.00;98393.16;4202937;27;20020;-71
2022/06/01 04:14:09;;;;;;;5.10;4.05;;;;;;;5.80;100.00;98382.81;4195516;28;20086;-71
2022/06/01 04:16:10;;;;;;;5.90;4.30;;;;;;;5.74;100.00;98386.13;4199294;27;20027;-71
2022/06/01 04:18:11;;;;;;;7.03;4.90;;;;;;;5.64;100.00;98388.22;4203044;27;20063;-71
2022/06/01 04:20:12;;;;;;;7.30;4.88;;;;;;;5.57;100.00;98388.00;4199066;28;20720;-71
2022/06/01 04:22:14;;;;;;;10.23;4.78;;;;;;;5.52;100.00;98377.28;4189503;27;20040;-71
2022/06/01 04:24:17;;;;;;;12.02;4.90;;;;;;;5.51;100.00;98380.38;4193913;28;20271;-71
2022/06/01 04:26:17;;;;;;;5.82;5.03;;;;;;;5.48;100.00;98387.34;4189501;27;20384;-71
2022/06/01 04:28:17;;;;;;;6.68;4.95;;;;;;;5.45;100.00;98371.56;4192818;28;20032;-71
2022/06/01 04:30:20;;;;;;;10.77;6.25;;;;;;;5.42;100.00;98360.50;4188699;28;20030;-71
2022/06/01 04:32:27;;;;;;;7.68;5.75;;;;;;;5.43;100.00;98373.06;4193054;27;20199;-71
2022/06/01 04:34:28;;;;;;;6.40;4.72;;;;;;;5.45;100.00;98368.03;4194479;28;20089;-71
2022/06/01 04:36:28;;;;;;;7.35;4.70;;;;;;;5.52;100.00;98369.03;4186287;28;20045;-72
2022/06/01 04:38:30;;;;;;;6.10;4.50;;;;;;;5.59;100.00;98368.44;4185262;27;20319;-71
2022/06/01 04:40:30;;;;;;;5.88;4.75;;;;;;;5.71;100.00;98368.44;4191530;28;20555;-71
2022/06/01 04:42:30;;;;;;;10.52;4.55;;;;;;;5.81;100.00;98367.13;4193501;28;20159;-71
2022/06/01 04:44:30;;;;;;;5.90;4.38;;;;;;;5.91;100.00;98364.72;4187178;28;20290;-71
2022/06/01 04:46:31;;;;;;;9.18;4.75;;;;;;;5.99;100.00;98365.72;4191026;28;20059;-71
2022/06/01 04:48:31;;;;;;;9.65;4.53;;;;;;;6.11;100.00;98365.63;4190315;28;20056;-71
2022/06/01 04:50:31;;;;;;;7.07;5.00;;;;;;;6.19;100.00;98363.88;4190364;28;20075;-72
2022/06/01 04:52:32;;;;;;;5.75;4.57;;;;;;;6.27;100.00;98351.94;4189896;28;20127;-72
2022/06/01 04:54:33;;;;;;;7.75;4.63;;;;;;;6.36;100.00;98360.81;4178070;27;20097;-71
2022/06/01 04:56:34;;;;;;;7.85;4.55;;;;;;;6.39;100.00;98362.88;4144989;28;20162;-71
2022/06/01 04:58:34;;;;;;;7.47;4.20;;;;;;;6.42;100.00;98375.88;4187091;28;20926;-71
2022/06/01 05:00:35;;;;;;;6.72;5.00;;;;;;;6.39;100.00;98420.56;4187578;27;20459;-71
2022/06/01 05:02:35;;;;;;;7.07;5.35;;;;;;;6.26;100.00;98435.50;4199274;28;20132;-72
2022/06/01 05:04:36;;;;;;;11.52;7.07;;;;;;;6.15;100.00;98451.69;4189686;28;20044;-71
2022/06/01 05:06:36;;;;;;;7.88;5.75;;;;;;;6.19;100.00;98433.34;4187928;28;20044;-71
2022/06/01 05:08:37;;;;;;;6.78;5.65;;;;;;;6.20;100.00;98445.16;4187456;28;20052;-71
2022/06/01 05:10:38;;;;;;;8.20;5.88;;;;;;;6.21;100.00;98446.78;4187795;28;20048;-71
2022/06/01 05:12:38;;;;;;;7.57;5.95;;;;;;;6.31;100.00;98459.19;4189370;28;20068;-71
2022/06/01 05:14:39;;;;;;;8.57;5.53;;;;;;;6.31;100.00;98460.00;4195342;28;20045;-71
2022/06/01 05:16:39;;;;;;;7.25;5.75;;;;;;;6.37;100.00;98457.78;4187982;28;20198;-71
2022/06/01 05:18:39;;;;;;;9.23;6.43;;;;;;;6.40;100.00;98457.09;4195606;27;20470;-71
2022/06/01 05:20:40;;;;;;;10.10;5.32;;;;;;;6.53;100.00;98452.31;4187306;28;20053;-71
2022/06/01 05:22:41;;;;;;;7.50;5.30;;;;;;;6.54;100.00;98440.16;4187904;28;20461;-71
2022/06/01 05:24:41;;;;;;;6.38;4.90;;;;;;;6.54;100.00;98418.19;4186906;28;20502;-71
2022/06/01 05:26:41;;;;;;;5.72;4.78;;;;;;;6.58;100.00;98408.88;4187622;28;20051;-71
2022/06/01 05:28:42;;;;;;;7.63;6.00;;;;;;;6.61;100.00;98388.13;4198047;27;20535;-71
2022/06/01 05:30:42;;;;;;;6.43;5.53;;;;;;;6.67;100.00;98376.53;4203140;27;20127;-71
2022/06/01 05:32:42;;;;;;;6.78;5.80;;;;;;;6.72;100.00;98378.22;4202002;27;20442;-71
2022/06/01 05:34:43;;;;;;;6.75;5.60;;;;;;;6.77;100.00;98383.44;4200226;27;20149;-71
2022/06/01 05:36:43;;;;;;;7.10;5.25;;;;;;;6.83;100.00;98392.22;4187620;28;20048;-71
2022/06/01 05:38:46;;;;;;;9.25;6.75;;;;;;;6.89;100.00;98399.88;4186384;28;20048;-71
2022/06/01 05:40:46;;;;;;;9.63;7.72;;;;;;;6.95;100.00;98390.19;4187730;28;20192;-71
2022/06/01 05:42:47;;;;;;;7.70;5.72;;;;;;;7.06;100.00;98406.94;4187241;28;20121;-71
2022/06/01 05:44:47;;;;;;;6.82;5.50;;;;;;;7.12;100.00;98419.28;4187232;28;20439;-71
2022/06/01 05:46:55;;;;;;;6.78;5.05;;;;;;;7.19;100.00;98422.19;4187211;28;20169;-71
2022/06/01 05:48:56;;;;;;;6.70;5.10;;;;;;;7.27;100.00;98437.72;4186144;28;20495;-71
2022/06/01 05:50:56;;;;;;;7.70;5.40;;;;;;;7.35;100.00;98470.91;4186753;28;20384;-71
2022/06/01 05:52:57;;;;;;;6.85;5.53;;;;;;;7.44;100.00;98516.34;4187383;28;20037;-71
2022/06/01 05:54:57;;;;;;;6.13;5.53;;;;;;;7.53;100.00;98511.50;4187079;28;20039;-71
2022/06/01 05:56:58;;;;;;;7.43;5.97;;;;;;;7.57;100.00;98503.31;4186593;28;20128;-71
2022/06/01 05:58:58;;;;;;;6.32;5.03;;;;;;;7.61;100.00;98493.16;4196105;27;20066;-71
2022/06/01 06:01:05;;;;;;;8.95;5.13;;;;;;;7.69;100.00;98496.88;4201472;27;20086;-72
2022/06/01 06:03:05;;;;;;;7.07;5.55;;;;;;;7.72;100.00;98498.94;4201995;27;20044;-71
2022/06/01 06:06:11;;;;;;;7.55;5.82;;;;;;;7.84;100.00;98501.56;4201674;27;20059;-71
2022/06/01 06:07:27;;;;;;;7.88;5.32;;;;;;;7.86;100.00;98496.47;4186531;28;20052;-71
2022/06/01 06:09:27;;;;;;;6.75;5.20;;;;;;;7.92;100.00;98491.50;4197440;27;20032;-71
2022/06/01 06:11:31;;;;;;;7.10;5.20;;;;;;;7.86;100.00;98488.22;4201898;27;20279;-71
2022/06/01 06:13:32;;;;;;;6.55;5.00;;;;;;;7.82;100.00;98435.03;4201247;27;20110;-71
2022/06/01 06:15:32;;;;;;;5.18;4.53;;;;;;;7.83;100.00;98415.38;4187185;28;20048;-71
2022/06/01 06:17:32;;;;;;;5.90;4.75;;;;;;;7.86;100.00;98419.34;4186436;28;20540;-71
2022/06/01 06:19:33;;;;;;;6.90;4.65;;;;;;;7.86;100.00;98414.66;4186539;28;20312;-71
2022/06/01 06:21:33;;;;;;;6.45;4.60;;;;;;;7.91;100.00;98413.56;4202567;27;20484;-71
2022/06/01 06:23:33;;;;;;;8.43;4.72;;;;;;;7.95;100.00;98419.16;4187372;28;20052;-71
2022/06/01 06:25:34;;;;;;;6.32;4.57;;;;;;;7.98;100.00;98423.94;4186316;28;20052;-71
2022/06/01 06:27:34;;;;;;;19.20;12.60;;;;;;;8.02;100.00;98420.09;4186126;28;20037;-71
2022/06/01 06:29:34;;;;;;;10.85;7.63;;;;;;;8.08;100.00;98417.84;4189661;28;20055;-71
2022/06/01 06:31:36;;;;;;;9.35;6.15;;;;;;;8.16;100.00;98419.59;4202182;27;20236;-71
2022/06/01 06:33:36;;;;;;;5.30;4.47;;;;;;;8.18;100.00;98423.56;4186828;28;20538;-71
2022/06/01 06:35:37;;;;;;;7.03;4.97;;;;;;;8.22;100.00;98426.41;4186754;28;20506;-71
2022/06/01 06:37:37;;;;;;;5.55;4.55;;;;;;;8.26;100.00;98429.22;4197968;28;20053;-71
2022/06/01 06:39:38;;;;;;;4.72;4.20;;;;;;;8.31;100.00;98434.44;4201841;27;20036;-71
2022/06/01 06:41:38;;;;;;;6.07;4.32;;;;;;;8.38;100.00;98429.91;4200516;28;20083;-71
2022/06/01 06:43:40;;;;;;;5.90;3.75;;;;;;;8.47;100.00;98440.72;4201292;27;20055;-71
2022/06/01 06:45:40;;;;;;;5.55;4.30;;;;;;;8.53;100.00;98438.47;4190595;27;20091;-71
2022/06/01 06:47:42;;;;;;;5.15;3.95;;;;;;;8.65;97.48;98441.03;4185935;28;20480;-71
2022/06/01 06:49:42;;;;;;;5.85;4.35;;;;;;;8.74;96.23;98444.34;4188492;28;20049;-72
2022/06/01 06:51:42;;;;;;;4.65;3.50;;;;;;;8.84;94.68;98449.25;4201028;27;20054;-73
2022/06/01 06:53:44;;;;;;;3.90;3.40;;;;;;;8.91;94.08;98443.06;4198482;27;20469;-71
2022/06/01 06:55:44;;;;;;;5.97;4.03;;;;;;;9.04;98.11;98429.91;4186113;28;20396;-71
2022/06/01 06:57:45;;;;;;;7.75;3.83;;;;;;;9.16;95.18;98436.00;4191596;28;20044;-71
2022/06/01 06:59:48;;;;;;;5.85;3.78;;;;;;;9.25;95.45;98433.00;4201289;27;20048;-71
2022/06/01 07:01:48;;;;;;;5.45;4.40;;;;;;;9.37;97.20;98426.50;4192522;27;20369;-71
2022/06/01 07:03:48;;;;;;;5.18;3.75;;;;;;;9.38;99.31;98426.09;4186718;28;20106;-71
2022/06/01 07:08:08;;;;;;;6.50;4.40;;;;;;;9.37;97.79;98421.75;4185851;28;20067;-71
2022/06/01 07:10:08;;;;;;;7.22;5.10;;;;;;;9.54;100.00;98429.50;4200050;27;20032;-71
2022/06/01 07:12:10;;;;;;;7.60;4.57;;;;;;;9.65;100.00;98424.13;4202809;28;20029;-71
2022/06/01 07:14:10;;;;;;;5.88;4.15;;;;;;;9.73;92.26;98423.06;4191731;27;20400;-71
2022/06/01 07:16:12;;;;;;;5.70;4.63;;;;;;;9.93;98.17;98420.16;4193764;28;20035;-71
2022/06/01 07:18:12;;;;;;;13.48;7.78;;;;;;;10.08;100.00;98417.19;4199921;27;20147;-71
2022/06/01 07:20:12;;;;;;;5.47;4.63;;;;;;;10.20;93.35;98421.69;4206264;27;20440;-71
2022/06/01 07:22:13;;;;;;;6.47;4.20;;;;;;;10.39;96.26;98423.53;4194384;28;20683;-71
2022/06/01 07:24:13;;;;;;;5.53;4.53;;;;;;;10.55;98.14;98423.31;4191429;28;20043;-71
2022/06/01 07:26:25;;;;;;;5.72;5.07;;;;;;;10.73;100.00;98417.94;4191620;28;20078;-71
2022/06/01 07:28:25;;;;;;;6.47;4.60;;;;;;;10.69;100.00;98420.69;4191204;27;20127;-71
2022/06/01 07:30:26;;;;;;;13.57;8.85;;;;;;;10.83;100.00;98423.56;4197189;27;20305;-71
2022/06/01 07:32:26;;;;;;;8.70;6.22;;;;;;;11.02;100.00;98430.88;4205867;27;20035;-71
2022/06/01 07:34:26;;;;;;;9.73;5.38;;;;;;;11.01;100.00;98420.19;4207721;27;20395;-71
2022/06/01 07:36:29;;;;;;;5.80;4.60;;;;;;;11.03;100.00;98413.09;4193388;27;20040;-71
2022/06/01 07:43:08;;;;;;;8.70;5.53;;;;;;;11.57;98.23;98410.72;4206141;27;20100;-71
2022/06/01 07:45:08;;;;;;;9.35;6.50;;;;;;;11.59;96.22;98409.16;4191121;27;20071;-71
2022/06/01 07:47:11;;;;;;;10.85;7.00;;;;;;;11.56;96.00;98412.69;4191605;28;20338;-71
2022/06/01 07:49:11;;;;;;;5.95;4.90;;;;;;;11.58;95.99;98417.84;4203630;27;20048;-71
2022/06/01 07:51:12;;;;;;;5.13;4.63;;;;;;;11.59;96.21;98413.91;4195697;28;20049;-71
2022/06/01 07:53:12;;;;;;;8.82;6.47;;;;;;;11.75;94.01;98411.59;4190906;28;20251;-71
2022/06/01 07:55:12;;;;;;;6.13;5.00;;;;;;;11.91;95.35;98411.34;4191685;27;20078;-71
2022/06/01 07:57:14;;;;;;;6.68;4.43;;;;;;;12.15;92.46;98410.66;4191165;27;20051;-71
2022/06/01 07:59:15;;;;;;;6.15;4.70;;;;;;;12.36;96.72;98413.50;4190620;28;20128;-71
2022/06/01 08:01:15;;;;;;;6.70;5.03;;;;;;;12.49;95.69;98410.38;4191634;28;20734;-71
2022/06/01 08:03:17;;;;;;;5.65;4.70;;;;;;;12.54;94.50;98408.00;4191302;28;20040;-71
2022/06/01 08:05:19;;;;;;;8.43;6.60;;;;;;;12.70;94.94;98409.63;4191537;28;20427;-71
2022/06/01 08:07:20;;;;;;;5.15;4.43;;;;;;;12.79;93.85;98405.28;4202501;27;20040;-71
2022/06/01 08:09:20;;;;;;;4.18;3.55;;;;;;;12.87;86.67;98406.09;4205956;27;20043;-71
2022/06/01 08:13:06;;;;;;;5.07;3.90;;;;;;;12.94;88.26;98409.66;4205878;27;20483;-71
2022/06/01 08:13:46;;;;;;;6.70;5.15;;;;;;;13.21;93.09;98414.88;4206450;27;20066;-72
2022/06/01 08:15:49;;;;;;;4.50;3.72;;;;;;;13.28;82.68;98412.09;4191275;27;20040;-72
2022/06/01 08:17:49;;;;;;;8.13;6.13;;;;;;;13.39;90.76;98414.84;4191461;28;20139;-72
2022/06/01 08:19:49;;;;;;;5.80;4.32;;;;;;;13.34;89.17;98409.72;4190368;28;20075;-71
2022/06/01 08:21:50;;;;;;;6.03;4.80;;;;;;;13.34;89.50;98413.28;4191296;28;20427;-72
2022/06/01 08:23:50;;;;;;;6.05;4.68;;;;;;;13.55;90.54;98411.66;4187137;28;20085;-72
2022/06/01 08:25:51;;;;;;;8.23;5.28;;;;;;;13.70;88.20;98421.56;4191291;28;20117;-72
2022/06/01 08:27:52;;;;;;;6.10;4.70;;;;;;;13.80;87.44;98414.41;4203641;27;20506;-72
2022/06/01 08:29:52;;;;;;;5.13;4.63;;;;;;;13.99;86.60;98411.97;4202729;27;20184;-72
2022/06/01 08:31:52;;;;;;;5.22;4.60;;;;;;;14.18;89.09;98418.25;4204603;27;20131;-72
2022/06/01 08:33:54;;;;;;;5.00;3.95;;;;;;;14.21;87.22;98415.44;4203437;28;20494;-72
2022/06/01 08:35:55;;;;;;;5.47;4.50;;;;;;;14.19;86.89;98415.06;4202772;27;20457;-72
2022/06/01 08:37:57;;;;;;;3.50;3.20;;;;;;;14.34;81.25;98413.81;4202638;27;20218;-72
2022/06/01 08:39:57;;;;;;;2.45;2.25;;;;;;;14.37;77.74;98408.63;4196226;27;20036;-72
2022/06/01 08:42:00;;;;;;;2.97;2.15;;;;;;;14.31;74.93;98417.41;4188301;28;20542;-71
2022/06/01 08:44:06;;;;;;;2.70;1.92;;;;;;;14.22;74.86;98414.25;4188197;28;20048;-72
2022/06/01 08:46:08;;;;;;;3.40;2.00;;;;;;;14.08;73.58;98403.19;4187762;28;20042;-72
2022/06/01 08:48:17;;;;;;;2.40;1.80;;;;;;;14.26;71.15;98411.47;4195529;28;20033;-72
2022/06/01 08:50:25;;;;;;;2.08;1.88;;;;;;;14.39;72.51;98415.38;4194662;27;20032;-72
2022/06/01 08:52:27;;;;;;;3.00;1.80;;;;;;;14.51;74.33;98414.16;4203074;27;20040;-72
2022/06/01 08:54:27;;;;;;;3.83;2.35;;;;;;;14.67;75.77;98411.69;4190288;28;20745;-72
2022/06/01 08:56:36;;;;;;;2.58;2.00;;;;;;;14.81;72.28;98414.38;4188363;28;20036;-72
2022/06/01 08:58:47;;;;;;;3.53;2.00;;;;;;;15.00;71.94;98409.47;4194901;28;20150;-72
2022/06/01 09:01:01;;;;;;;2.45;2.03;;;;;;;15.13;70.30;98418.91;4188136;28;20115;-72
2022/06/01 09:03:25;;;;;;;2.15;1.88;;;;;;;15.14;71.38;98406.56;4195859;27;20033;-72
2022/06/01 09:05:47;;;;;;;2.30;1.75;;;;;;;15.29;72.01;98418.41;4187811;28;20037;-72
2022/06/01 09:08:09;;;;;;;2.72;2.03;;;;;;;15.23;68.77;98404.13;4188218;28;20102;-72
2022/06/01 09:10:54;;;;;;;2.78;1.90;;;;;;;15.35;70.60;98414.75;4187087;28;20360;-72
2022/06/01 09:13:12;;;;;;;1.80;1.70;;;;;;;15.54;70.04;98413.38;4187314;28;20629;-72
2022/06/01 09:15:18;;;;;;;2.67;1.92;;;;;;;15.62;68.74;98412.16;4187275;28;20484;-72
2022/06/01 09:17:19;;;;;;;2.88;1.90;;;;;;;15.61;67.22;98409.78;4187468;28;20499;-72
2022/06/01 09:22:37;;;;;;;2.00;1.77;;;;;;;15.63;66.87;98408.16;4187084;28;20198;-72
2022/06/01 09:24:27;;;;;;;4.07;2.10;;;;;;;15.22;65.49;98418.44;4192540;28;20504;-72
2022/06/01 09:26:29;;;;;;;5.80;1.70;;;;;;;15.30;66.00;98417.19;4187115;28;20207;-72
2022/06/01 09:28:29;;;;;;;3.33;1.88;;;;;;;15.46;66.97;98417.44;4197678;27;20044;-72
2022/06/01 09:30:39;;;;;;;2.53;1.75;;;;;;;15.60;66.61;98420.13;4201979;27;20032;-73
2022/06/01 09:32:41;;;;;;;2.25;1.83;;;;;;;15.57;65.23;98415.38;4187908;28;20554;-73
2022/06/01 09:34:48;;;;;;;2.85;1.88;;;;;;;15.53;63.10;98414.59;4187019;28;20626;-72
2022/06/01 09:37:13;;;;;;;2.45;1.52;;;;;;;15.53;60.94;98417.38;4187084;28;20264;-72
2022/06/01 09:39:18;;;;;;;1.70;1.30;;;;;;;15.49;60.08;98396.34;4196615;27;20071;-72
2022/06/01 09:41:36;;;;;;;1.48;1.35;;;;;;;15.51;59.63;98419.00;4197485;28;20638;-73
2022/06/01 09:43:41;;;;;;;2.28;1.48;;;;;;;15.37;59.66;98405.97;4187362;28;20041;-72
2022/06/01 09:45:48;;;;;;;2.90;1.70;;;;;;;15.32;60.26;98412.81;4198402;28;20127;-73
2022/06/01 09:47:50;;;;;;;1.58;1.42;;;;;;;15.46;60.82;98409.09;4187127;28;20060;-73
2022/06/01 09:49:53;;;;;;;1.70;1.40;;;;;;;15.43;60.31;98409.91;4185993;28;20045;-73
2022/06/01 09:51:58;;;;;;;;;;;;;;;15.31;60.71;98408.44;4187896;28;20082;-72
2022/06/01 09:54:24;;;;;;;2.20;1.45;;;;;;;15.33;60.79;98410.81;4187527;28;19922;-72
2022/06/01 09:56:36;;;;;;;2.05;1.42;;;;;;;15.27;61.12;98404.09;4196056;27;20388;-73
2022/06/01 10:08:09;;;;;;;1.60;1.50;;;;;;;15.64;59.80;98393.03;4186806;28;20107;-73
2022/06/01 10:10:22;;;;;;;1.50;1.30;;;;;;;15.63;60.02;98402.56;4186258;27;20056;-73
2022/06/01 10:12:31;;;;;;;2.10;1.40;;;;;;;15.72;61.92;98405.69;4186785;28;20124;-73
2022/06/01 10:14:35;;;;;;;2.15;1.55;;;;;;;15.97;60.20;98410.19;4192424;28;20147;-73